Hiyodori — JD2366 — position and weather

sailwx.info

Track history (hours):
 
Tides and Currents Weather Stations Pressure Air Temp Water Temp Dewpoint Dewpoint Depression Visibility Wind Speed Wind Dir Waves Ship Positions

Hiyodori

Last reported at 2017-Aug-23 21:28 UTC. Time now 2017-Aug-23 21:29 UTC.
Position N 35°29' E 139°39'.

Length 88 m; draft 3.6 m.

Type: Cargo ship. MMSI: 431000132.

Date/timePositionNaut miles runAvg speedWind from/ knotsBaromVisibWave heightAir tempDewpointWater temp
2017-Aug-23 21:28N 35°29' E 139°39'0 0.0
2017-Aug-23 20:58N 35°29' E 139°39'0 0.0
2017-Aug-23 20:31N 35°29' E 139°39'0 0.0
2017-Aug-23 19:58N 35°29' E 139°39'0 0.0
2017-Aug-23 19:28N 35°29' E 139°39'0 0.0
2017-Aug-23 18:58N 35°29' E 139°39'0 0.0
2017-Aug-23 18:28N 35°29' E 139°39'0 0.0
2017-Aug-23 17:58N 35°29' E 139°39'0 0.0
2017-Aug-23 17:28N 35°29' E 139°39'0 0.0
2017-Aug-23 16:58N 35°29' E 139°39'0 0.0
2017-Aug-23 16:31N 35°29' E 139°39'0 0.0
2017-Aug-23 16:01N 35°29' E 139°39'0 0.0
2017-Aug-23 15:31N 35°29' E 139°39'0 0.0
2017-Aug-23 15:01N 35°29' E 139°39'0 0.0
2017-Aug-23 14:28N 35°29' E 139°39'0 0.0
2017-Aug-23 13:28N 35°29' E 139°39'0 0.0
2017-Aug-23 12:58N 35°29' E 139°39'0 0.0
2017-Aug-23 12:31N 35°29' E 139°39'0 0.0
2017-Aug-23 12:01N 35°29' E 139°39'0 0.0
2017-Aug-23 11:31N 35°29' E 139°39'0 0.0
2017-Aug-23 11:01N 35°29' E 139°39'0 0.0
2017-Aug-23 10:31N 35°29' E 139°39'0 0.0
2017-Aug-23 09:58N 35°29' E 139°39'0 0.0
2017-Aug-23 09:31N 35°29' E 139°39'0 0.0
2017-Aug-23 09:01N 35°29' E 139°39'2 4.0
2017-Aug-23 08:30N 35°27' E 139°41'5 9.9
2017-Aug-23 08:00N 35°28' E 139°47'4 7.2
2017-Aug-23 07:31N 35°31' E 139°50'4 8.5
2017-Aug-23 07:01N 35°35' E 139°48'2 3.5
2017-Aug-23 06:28N 35°36' E 139°46'0 0.0
2017-Aug-23 05:46N 35°36' E 139°46'0 0.0
2017-Aug-23 05:23N 35°36' E 139°46'1 1.7
2017-Aug-23 05:01N 35°36' E 139°46'0 0.0
2017-Aug-23 04:29N 35°36' E 139°46'0 0.0
2017-Aug-23 03:59N 35°36' E 139°46'0 0.0
2017-Aug-23 03:29N 35°36' E 139°46'0 0.0
2017-Aug-23 02:59N 35°36' E 139°46'0 0.0
2017-Aug-23 02:26N 35°36' E 139°46'0 0.0
2017-Aug-23 01:59N 35°36' E 139°46'0 0.0
2017-Aug-23 01:29N 35°36' E 139°46'0 0.0
2017-Aug-23 00:59N 35°36' E 139°46'0 0.0
2017-Aug-23 00:29N 35°36' E 139°46'0 0.0
2017-Aug-23 00:00N 35°36' E 139°46'4 8.6
2017-Aug-22 23:30N 35°34' E 139°50'2 3.3
2017-Aug-22 22:47N 35°34' E 139°53'0 0.1
2017-Aug-22 22:26N 35°34' E 139°53'0 0.0
2017-Aug-22 21:56N 35°34' E 139°53'0 0.0
2017-Aug-22 20:11N 35°34' E 139°53'0 0.2
2017-Aug-22 19:59N 35°34' E 139°53'0 0.1
2017-Aug-22 19:29N 35°34' E 139°53'0 0.0
2017-Aug-22 18:59N 35°34' E 139°53'0 0.0
2017-Aug-22 17:53N 35°34' E 139°53'0 0.0
2017-Aug-22 17:29N 35°34' E 139°53'0 0.0
2017-Aug-22 16:47N 35°34' E 139°53'0 0.0
2017-Aug-22 13:23N 35°34' E 139°53'0 0.0
2017-Aug-22 12:59N 35°34' E 139°53'0 0.0
2017-Aug-22 12:29N 35°34' E 139°53'0 0.0
2017-Aug-22 11:59N 35°34' E 139°53'0 0.0
2017-Aug-22 11:29N 35°34' E 139°53'0 0.0
2017-Aug-22 10:59N 35°34' E 139°53'0 0.0
2017-Aug-22 10:29N 35°34' E 139°53'0 0.0
2017-Aug-22 09:59N 35°34' E 139°53'0 0.0
2017-Aug-22 09:29N 35°34' E 139°53'0 0.0
2017-Aug-22 08:56N 35°34' E 139°53'0 0.0
2017-Aug-22 08:29N 35°34' E 139°53'0 0.0
2017-Aug-22 07:59N 35°34' E 139°53'0 0.0
2017-Aug-22 07:29N 35°34' E 139°53'0 0.0
2017-Aug-22 06:59N 35°34' E 139°53'0 0.0
2017-Aug-22 06:29N 35°34' E 139°53'1 2.4
2017-Aug-22 05:59N 35°34' E 139°54'4 9.4
2017-Aug-22 05:30N 35°30' E 139°52'713.1
2017-Aug-22 05:00N 35°25' E 139°47'713.2
2017-Aug-22 04:30N 35°19' E 139°44'712.4
2017-Aug-22 03:58N 35°13' E 139°47'812.3
2017-Aug-22 03:21N 35°06' E 139°44'  
2017-Aug-19 10:49N 34°52' E 139°20'410.6
2017-Aug-19 10:25N 34°54' E 139°24'511.0
2017-Aug-19 10:00N 34°57' E 139°28'611.8
2017-Aug-19 09:30N 35°01' E 139°33'611.6
2017-Aug-19 09:00N 35°05' E 139°39'611.1
2017-Aug-19 08:30N 35°09' E 139°43'611.4
2017-Aug-19 08:00N 35°14' E 139°46'611.6
2017-Aug-19 07:30N 35°19' E 139°43'510.1
2017-Aug-19 07:00N 35°24' E 139°41'0 0.2
2017-Aug-19 06:30N 35°24' E 139°41'0 0.0
2017-Aug-19 06:00N 35°24' E 139°41'0 0.0
2017-Aug-19 05:30N 35°24' E 139°41'0 0.0
2017-Aug-19 05:00N 35°24' E 139°41'2 3.2
2017-Aug-19 04:30N 35°25' E 139°42'5 9.1
2017-Aug-19 04:00N 35°29' E 139°45'1 1.0
2017-Aug-19 03:28N 35°29' E 139°45'0 0.0
2017-Aug-19 02:58N 35°29' E 139°45'0 0.0
2017-Aug-19 02:28N 35°29' E 139°45'0 0.0
2017-Aug-19 01:58N 35°29' E 139°45'2 5.2
2017-Aug-19 01:30N 35°27' E 139°46'510.9
2017-Aug-19 01:00N 35°22' E 139°45'510.9
2017-Aug-19 00:30N 35°16' E 139°46'611.5
2017-Aug-19 00:00N 35°11' E 139°47'611.9
2017-Aug-18 23:30N 35°05' E 139°44'611.9
2017-Aug-18 23:00N 34°60' E 139°41'18 0.6
2017-Aug-17 14:33N 34°52' E 139°21'211.1
2017-Aug-17 14:23N 34°53' E 139°22'511.5
2017-Aug-17 13:59N 34°56' E 139°27'612.1
2017-Aug-17 13:30N 34°60' E 139°32'612.6
2017-Aug-17 13:00N 35°04' E 139°38'612.8
2017-Aug-17 12:31N 35°08' E 139°43'612.2
2017-Aug-17 12:00N 35°14' E 139°46'612.0
2017-Aug-17 11:30N 35°19' E 139°43'5 9.7
2017-Aug-17 11:00N 35°24' E 139°41'0 0.2
2017-Aug-17 10:30N 35°24' E 139°41'0 0.0
2017-Aug-17 10:00N 35°24' E 139°41'1 1.9
2017-Aug-17 09:31N 35°24' E 139°42'4 8.0
2017-Aug-17 09:00N 35°27' E 139°45'4 7.5
2017-Aug-17 08:30N 35°29' E 139°49'3 6.7
2017-Aug-17 08:01N 35°32' E 139°51'3 5.5
2017-Aug-17 07:30N 35°34' E 139°48'3 5.3
2017-Aug-17 07:01N 35°36' E 139°46'0 0.0
2017-Aug-17 06:28N 35°36' E 139°46'0 0.0
2017-Aug-17 05:58N 35°36' E 139°46'0 0.0
2017-Aug-17 05:30N 35°36' E 139°46'4 7.3
2017-Aug-17 05:00N 35°34' E 139°49'3 3.9
2017-Aug-17 04:13N 35°33' E 139°53'0 0.0
2017-Aug-17 03:58N 35°33' E 139°53'0 0.0
2017-Aug-17 03:25N 35°33' E 139°53'0 1.2
2017-Aug-17 03:00N 35°33' E 139°53'510.6
2017-Aug-17 02:30N 35°28' E 139°50'510.6
2017-Aug-17 02:00N 35°24' E 139°46'510.5
2017-Aug-17 01:30N 35°19' E 139°44'510.5
2017-Aug-17 01:00N 35°14' E 139°47'510.0
2017-Aug-17 00:30N 35°09' E 139°46'5 9.4
2017-Aug-17 00:00N 35°05' E 139°43'5 9.9
2017-Aug-16 23:30N 35°02' E 139°39'510.4
2017-Aug-16 23:00N 34°59' E 139°34'9 0.3
2017-Aug-15 09:56N 34°54' E 139°24'612.4
2017-Aug-15 09:27N 34°58' E 139°29'612.6
2017-Aug-15 09:00N 35°01' E 139°35'612.9
2017-Aug-15 08:30N 35°06' E 139°41'612.8
2017-Aug-15 08:00N 35°11' E 139°45'611.5
2017-Aug-15 07:31N 35°17' E 139°45'611.6
2017-Aug-15 07:00N 35°22' E 139°42'611.9
2017-Aug-15 06:31N 35°27' E 139°46'612.1
2017-Aug-15 06:01N 35°32' E 139°50'510.2
2017-Aug-15 05:30N 35°36' E 139°46'0 0.4
2017-Aug-15 05:00N 35°36' E 139°46'0 0.0
2017-Aug-15 04:30N 35°36' E 139°46'0 0.0
2017-Aug-15 03:54N 35°36' E 139°46'0 0.0
2017-Aug-15 03:30N 35°36' E 139°46'1 1.1
2017-Aug-15 03:00N 35°36' E 139°46'0 0.1
2017-Aug-15 02:29N 35°36' E 139°46'0 0.0
2017-Aug-15 01:59N 35°36' E 139°46'0 0.0
2017-Aug-15 01:29N 35°36' E 139°46'0 0.0
2017-Aug-15 00:59N 35°36' E 139°46'0 0.0
2017-Aug-15 00:26N 35°36' E 139°46'0 0.0
2017-Aug-14 23:59N 35°36' E 139°46'0 0.0
2017-Aug-14 23:30N 35°36' E 139°46'4 8.2
2017-Aug-14 23:00N 35°34' E 139°50'5 9.6
2017-Aug-14 22:31N 35°29' E 139°52'510.3
2017-Aug-14 22:00N 35°25' E 139°48'611.6
2017-Aug-14 21:30N 35°20' E 139°44'510.9
2017-Aug-14 21:01N 35°15' E 139°47'611.4
2017-Aug-14 20:31N 35°10' E 139°47'611.4
2017-Aug-14 20:00N 35°04' E 139°44'611.7
2017-Aug-14 19:30N 35°00' E 139°39'  
Track history (hours):
 
Tides and Currents Weather Stations Pressure Air Temp Water Temp Dewpoint Dewpoint Depression Visibility Wind Speed Wind Dir Waves Ship Positions

Hiyodori

Last reported at 2017-Aug-23 21:28 UTC. Time now 2017-Aug-23 21:29 UTC.
Position N 35°29' E 139°39'.

Length 88 m; draft 3.6 m.

Type: Cargo ship. MMSI: 431000132.

Date/timePositionNaut miles runAvg speedWind from/ knotsBaromVisibWave heightAir tempDewpointWater temp
2017-Aug-23 21:28N 35°29' E 139°39'0 0.0
2017-Aug-23 20:58N 35°29' E 139°39'0 0.0
2017-Aug-23 20:31N 35°29' E 139°39'0 0.0
2017-Aug-23 19:58N 35°29' E 139°39'0 0.0
2017-Aug-23 19:28N 35°29' E 139°39'0 0.0
2017-Aug-23 18:58N 35°29' E 139°39'0 0.0
2017-Aug-23 18:28N 35°29' E 139°39'0 0.0
2017-Aug-23 17:58N 35°29' E 139°39'0 0.0
2017-Aug-23 17:28N 35°29' E 139°39'0 0.0
2017-Aug-23 16:58N 35°29' E 139°39'0 0.0
2017-Aug-23 16:31N 35°29' E 139°39'0 0.0
2017-Aug-23 16:01N 35°29' E 139°39'0 0.0
2017-Aug-23 15:31N 35°29' E 139°39'0 0.0
2017-Aug-23 15:01N 35°29' E 139°39'0 0.0
2017-Aug-23 14:28N 35°29' E 139°39'0 0.0
2017-Aug-23 13:28N 35°29' E 139°39'0 0.0
2017-Aug-23 12:58N 35°29' E 139°39'0 0.0
2017-Aug-23 12:31N 35°29' E 139°39'0 0.0
2017-Aug-23 12:01N 35°29' E 139°39'0 0.0
2017-Aug-23 11:31N 35°29' E 139°39'0 0.0
2017-Aug-23 11:01N 35°29' E 139°39'0 0.0
2017-Aug-23 10:31N 35°29' E 139°39'0 0.0
2017-Aug-23 09:58N 35°29' E 139°39'0 0.0
2017-Aug-23 09:31N 35°29' E 139°39'0 0.0
2017-Aug-23 09:01N 35°29' E 139°39'2 4.0
2017-Aug-23 08:30N 35°27' E 139°41'5 9.9
2017-Aug-23 08:00N 35°28' E 139°47'4 7.2
2017-Aug-23 07:31N 35°31' E 139°50'4 8.5
2017-Aug-23 07:01N 35°35' E 139°48'2 3.5
2017-Aug-23 06:28N 35°36' E 139°46'0 0.0
2017-Aug-23 05:46N 35°36' E 139°46'0 0.0
2017-Aug-23 05:23N 35°36' E 139°46'1 1.7
2017-Aug-23 05:01N 35°36' E 139°46'0 0.0
2017-Aug-23 04:29N 35°36' E 139°46'0 0.0
2017-Aug-23 03:59N 35°36' E 139°46'0 0.0
2017-Aug-23 03:29N 35°36' E 139°46'0 0.0
2017-Aug-23 02:59N 35°36' E 139°46'0 0.0
2017-Aug-23 02:26N 35°36' E 139°46'0 0.0
2017-Aug-23 01:59N 35°36' E 139°46'0 0.0
2017-Aug-23 01:29N 35°36' E 139°46'0 0.0
2017-Aug-23 00:59N 35°36' E 139°46'0 0.0
2017-Aug-23 00:29N 35°36' E 139°46'0 0.0
2017-Aug-23 00:00N 35°36' E 139°46'4 8.6
2017-Aug-22 23:30N 35°34' E 139°50'2 3.3
2017-Aug-22 22:47N 35°34' E 139°53'0 0.1
2017-Aug-22 22:26N 35°34' E 139°53'0 0.0
2017-Aug-22 21:56N 35°34' E 139°53'0 0.0
2017-Aug-22 20:11N 35°34' E 139°53'0 0.2
2017-Aug-22 19:59N 35°34' E 139°53'0 0.1
2017-Aug-22 19:29N 35°34' E 139°53'0 0.0
2017-Aug-22 18:59N 35°34' E 139°53'0 0.0
2017-Aug-22 17:53N 35°34' E 139°53'0 0.0
2017-Aug-22 17:29N 35°34' E 139°53'0 0.0
2017-Aug-22 16:47N 35°34' E 139°53'0 0.0
2017-Aug-22 13:23N 35°34' E 139°53'0 0.0
2017-Aug-22 12:59N 35°34' E 139°53'0 0.0
2017-Aug-22 12:29N 35°34' E 139°53'0 0.0
2017-Aug-22 11:59N 35°34' E 139°53'0 0.0
2017-Aug-22 11:29N 35°34' E 139°53'0 0.0
2017-Aug-22 10:59N 35°34' E 139°53'0 0.0
2017-Aug-22 10:29N 35°34' E 139°53'0 0.0
2017-Aug-22 09:59N 35°34' E 139°53'0 0.0
2017-Aug-22 09:29N 35°34' E 139°53'0 0.0
2017-Aug-22 08:56N 35°34' E 139°53'0 0.0
2017-Aug-22 08:29N 35°34' E 139°53'0 0.0
2017-Aug-22 07:59N 35°34' E 139°53'0 0.0
2017-Aug-22 07:29N 35°34' E 139°53'0 0.0
2017-Aug-22 06:59N 35°34' E 139°53'0 0.0
2017-Aug-22 06:29N 35°34' E 139°53'1 2.4
2017-Aug-22 05:59N 35°34' E 139°54'4 9.4
2017-Aug-22 05:30N 35°30' E 139°52'713.1
2017-Aug-22 05:00N 35°25' E 139°47'713.2
2017-Aug-22 04:30N 35°19' E 139°44'712.4
2017-Aug-22 03:58N 35°13' E 139°47'812.3
2017-Aug-22 03:21N 35°06' E 139°44'  
2017-Aug-19 10:49N 34°52' E 139°20'410.6
2017-Aug-19 10:25N 34°54' E 139°24'511.0
2017-Aug-19 10:00N 34°57' E 139°28'611.8
2017-Aug-19 09:30N 35°01' E 139°33'611.6
2017-Aug-19 09:00N 35°05' E 139°39'611.1
2017-Aug-19 08:30N 35°09' E 139°43'611.4
2017-Aug-19 08:00N 35°14' E 139°46'611.6
2017-Aug-19 07:30N 35°19' E 139°43'510.1
2017-Aug-19 07:00N 35°24' E 139°41'0 0.2
2017-Aug-19 06:30N 35°24' E 139°41'0 0.0
2017-Aug-19 06:00N 35°24' E 139°41'0 0.0
2017-Aug-19 05:30N 35°24' E 139°41'0 0.0
2017-Aug-19 05:00N 35°24' E 139°41'2 3.2
2017-Aug-19 04:30N 35°25' E 139°42'5 9.1
2017-Aug-19 04:00N 35°29' E 139°45'1 1.0
2017-Aug-19 03:28N 35°29' E 139°45'0 0.0
2017-Aug-19 02:58N 35°29' E 139°45'0 0.0
2017-Aug-19 02:28N 35°29' E 139°45'0 0.0
2017-Aug-19 01:58N 35°29' E 139°45'2 5.2
2017-Aug-19 01:30N 35°27' E 139°46'510.9
2017-Aug-19 01:00N 35°22' E 139°45'510.9
2017-Aug-19 00:30N 35°16' E 139°46'611.5
2017-Aug-19 00:00N 35°11' E 139°47'611.9
2017-Aug-18 23:30N 35°05' E 139°44'611.9
2017-Aug-18 23:00N 34°60' E 139°41'18 0.6
2017-Aug-17 14:33N 34°52' E 139°21'211.1
2017-Aug-17 14:23N 34°53' E 139°22'511.5
2017-Aug-17 13:59N 34°56' E 139°27'612.1
2017-Aug-17 13:30N 34°60' E 139°32'612.6
2017-Aug-17 13:00N 35°04' E 139°38'612.8
2017-Aug-17 12:31N 35°08' E 139°43'612.2
2017-Aug-17 12:00N 35°14' E 139°46'612.0
2017-Aug-17 11:30N 35°19' E 139°43'5 9.7
2017-Aug-17 11:00N 35°24' E 139°41'0 0.2
2017-Aug-17 10:30N 35°24' E 139°41'0 0.0
2017-Aug-17 10:00N 35°24' E 139°41'1 1.9
2017-Aug-17 09:31N 35°24' E 139°42'4 8.0
2017-Aug-17 09:00N 35°27' E 139°45'4 7.5
2017-Aug-17 08:30N 35°29' E 139°49'3 6.7
2017-Aug-17 08:01N 35°32' E 139°51'3 5.5
2017-Aug-17 07:30N 35°34' E 139°48'3 5.3
2017-Aug-17 07:01N 35°36' E 139°46'0 0.0
2017-Aug-17 06:28N 35°36' E 139°46'0 0.0
2017-Aug-17 05:58N 35°36' E 139°46'0 0.0
2017-Aug-17 05:30N 35°36' E 139°46'4 7.3
2017-Aug-17 05:00N 35°34' E 139°49'3 3.9
2017-Aug-17 04:13N 35°33' E 139°53'0 0.0
2017-Aug-17 03:58N 35°33' E 139°53'0 0.0
2017-Aug-17 03:25N 35°33' E 139°53'0 1.2
2017-Aug-17 03:00N 35°33' E 139°53'510.6
2017-Aug-17 02:30N 35°28' E 139°50'510.6
2017-Aug-17 02:00N 35°24' E 139°46'510.5
2017-Aug-17 01:30N 35°19' E 139°44'510.5
2017-Aug-17 01:00N 35°14' E 139°47'510.0
2017-Aug-17 00:30N 35°09' E 139°46'5 9.4
2017-Aug-17 00:00N 35°05' E 139°43'5 9.9
2017-Aug-16 23:30N 35°02' E 139°39'510.4
2017-Aug-16 23:00N 34°59' E 139°34'9 0.3
2017-Aug-15 09:56N 34°54' E 139°24'612.4
2017-Aug-15 09:27N 34°58' E 139°29'612.6
2017-Aug-15 09:00N 35°01' E 139°35'612.9
2017-Aug-15 08:30N 35°06' E 139°41'612.8
2017-Aug-15 08:00N 35°11' E 139°45'611.5
2017-Aug-15 07:31N 35°17' E 139°45'611.6
2017-Aug-15 07:00N 35°22' E 139°42'611.9
2017-Aug-15 06:31N 35°27' E 139°46'612.1
2017-Aug-15 06:01N 35°32' E 139°50'510.2
2017-Aug-15 05:30N 35°36' E 139°46'0 0.4
2017-Aug-15 05:00N 35°36' E 139°46'0 0.0
2017-Aug-15 04:30N 35°36' E 139°46'0 0.0
2017-Aug-15 03:54N 35°36' E 139°46'0 0.0
2017-Aug-15 03:30N 35°36' E 139°46'1 1.1
2017-Aug-15 03:00N 35°36' E 139°46'0 0.1
2017-Aug-15 02:29N 35°36' E 139°46'0 0.0
2017-Aug-15 01:59N 35°36' E 139°46'0 0.0
2017-Aug-15 01:29N 35°36' E 139°46'0 0.0
2017-Aug-15 00:59N 35°36' E 139°46'0 0.0
2017-Aug-15 00:26N 35°36' E 139°46'0 0.0
2017-Aug-14 23:59N 35°36' E 139°46'0 0.0
2017-Aug-14 23:30N 35°36' E 139°46'4 8.2
2017-Aug-14 23:00N 35°34' E 139°50'5 9.6
2017-Aug-14 22:31N 35°29' E 139°52'510.3
2017-Aug-14 22:00N 35°25' E 139°48'611.6
2017-Aug-14 21:30N 35°20' E 139°44'510.9
2017-Aug-14 21:01N 35°15' E 139°47'611.4
2017-Aug-14 20:31N 35°10' E 139°47'611.4
2017-Aug-14 20:00N 35°04' E 139°44'611.7
2017-Aug-14 19:30N 35°00' E 139°39'  

Dump ship's entire track history